Time;durP1;ratioP1;P1;durP2;ratioP2;P2;SDS_P1;SDS_P2;PMS_P1;PMS_P2;Temp;Humidity;BMP_temperature;BMP_pressure;BME280_temperature;BME280_humidity;BME280_pressure;Samples;Min_cycle;Max_cycle;Signal;HPM_P1;HPM_P2
2024/02/18 00:01:37;;;;;;;29.40;12.95;;;;;;;2.61;97.56;101335.56;5027616;28;20110;-79
2024/02/18 00:04:03;;;;;;;34.72;14.93;;;;;;;2.75;97.28;101353.63;5027020;28;20034;-79
2024/02/18 00:06:28;;;;;;;29.67;13.10;;;;;;;2.32;99.53;101322.34;5026778;28;20116;-79
2024/02/18 00:08:54;;;;;;;19.40;10.65;;;;;;;1.52;100.00;101327.38;5025918;28;20114;-80
2024/02/18 00:11:20;;;;;;;24.67;12.23;;;;;;;1.11;100.00;101339.53;5027172;28;20406;-80
2024/02/18 00:13:45;;;;;;;48.47;19.10;;;;;;;0.88;100.00;101349.28;5025611;28;20091;-79
2024/02/18 00:16:11;;;;;;;45.80;17.70;;;;;;;0.84;100.00;101331.25;5026875;28;20161;-79
2024/02/18 00:18:36;;;;;;;48.42;19.10;;;;;;;1.09;100.00;101336.19;5028481;28;20029;-80
2024/02/18 00:21:02;;;;;;;43.83;18.13;;;;;;;1.09;100.00;101338.81;5030401;28;20407;-79
2024/02/18 00:23:28;;;;;;;40.65;16.30;;;;;;;0.99;100.00;101340.53;5030901;28;20033;-79
2024/02/18 00:25:54;;;;;;;43.17;15.18;;;;;;;0.89;100.00;101314.16;5030800;28;20589;-79
2024/02/18 00:28:20;;;;;;;33.08;13.82;;;;;;;0.57;100.00;101325.50;5030478;28;20033;-79
2024/02/18 00:30:49;;;;;;;26.92;13.00;;;;;;;0.59;100.00;101336.72;5030508;28;20033;-79
2024/02/18 00:33:18;;;;;;;32.83;14.68;;;;;;;0.93;100.00;101335.78;5030361;28;20434;-79
2024/02/18 00:35:44;;;;;;;28.90;14.40;;;;;;;0.68;100.00;101308.06;5030380;28;20069;-80
2024/02/18 00:38:09;;;;;;;27.77;12.63;;;;;;;0.40;100.00;101355.69;5029739;28;20072;-80
2024/02/18 00:40:35;;;;;;;30.90;15.40;;;;;;;0.46;100.00;101348.31;5030770;28;20033;-80
2024/02/18 00:43:00;;;;;;;26.92;13.18;;;;;;;1.05;98.04;101323.44;5061820;28;20021;-79
2024/02/18 00:45:26;;;;;;;24.90;11.80;;;;;;;0.72;100.00;101344.44;5030104;28;20044;-80
2024/02/18 00:47:51;;;;;;;24.48;12.45;;;;;;;0.60;100.00;101332.28;5030407;28;20112;-80
2024/02/18 00:50:17;;;;;;;28.75;12.60;;;;;;;1.30;100.00;101335.38;5029237;28;20037;-80
2024/02/18 00:52:42;;;;;;;25.90;12.10;;;;;;;1.20;100.00;101309.03;5029360;28;20541;-80
2024/02/18 00:55:08;;;;;;;28.20;12.48;;;;;;;0.56;100.00;101320.38;5028911;28;20470;-80
2024/02/18 00:57:34;;;;;;;20.25;10.18;;;;;;;0.40;100.00;101337.31;5029899;28;20037;-79
2024/02/18 00:59:59;;;;;;;23.02;10.88;;;;;;;0.16;100.00;101295.50;5029833;28;20087;-79
2024/02/18 01:02:29;;;;;;;22.00;10.68;;;;;;;0.44;100.00;101287.22;5030336;28;20156;-80
2024/02/18 01:04:55;;;;;;;19.23;9.88;;;;;;;0.24;100.00;101334.22;5029701;28;20017;-79
2024/02/18 01:07:20;;;;;;;23.30;10.10;;;;;;;-0.23;100.00;101276.66;5030099;28;20043;-80
2024/02/18 01:09:48;;;;;;;20.77;10.00;;;;;;;-0.09;100.00;101301.81;5029799;28;20450;-80
2024/02/18 01:12:14;;;;;;;20.83;11.25;;;;;;;0.50;100.00;101297.22;5029474;28;20445;-80
2024/02/18 01:14:39;;;;;;;22.08;10.25;;;;;;;0.69;100.00;101323.66;5029434;28;20026;-79
2024/02/18 01:17:04;;;;;;;20.65;11.05;;;;;;;0.93;100.00;101312.13;5029618;28;20459;-79
2024/02/18 01:19:31;;;;;;;24.15;11.15;;;;;;;0.53;100.00;101287.31;5044006;28;20049;-80
2024/02/18 01:21:56;;;;;;;21.95;11.52;;;;;;;1.07;100.00;101311.84;5048512;28;20037;-79
2024/02/18 01:24:22;;;;;;;20.83;11.25;;;;;;;1.05;100.00;101298.00;5049368;28;20029;-80
2024/02/18 01:26:47;;;;;;;21.90;11.30;;;;;;;0.62;100.00;101285.75;5030618;28;20041;-79
2024/02/18 01:29:13;;;;;;;21.27;11.52;;;;;;;0.64;100.00;101304.00;5031320;28;20105;-80
2024/02/18 01:31:38;;;;;;;22.67;11.88;;;;;;;0.53;100.00;101286.47;5029421;28;20039;-80
2024/02/18 01:34:03;;;;;;;23.13;10.98;;;;;;;0.35;100.00;101273.06;5029082;28;20026;-79
2024/02/18 01:36:29;;;;;;;19.52;10.27;;;;;;;0.13;100.00;101260.81;5029321;28;20053;-80
2024/02/18 01:38:54;;;;;;;19.55;9.75;;;;;;;0.31;100.00;101288.19;5031653;28;20021;-80
2024/02/18 01:41:20;;;;;;;17.80;10.00;;;;;;;0.80;100.00;101293.94;5028016;28;20052;-79
2024/02/18 01:43:45;;;;;;;19.48;10.63;;;;;;;0.76;100.00;101256.56;5029016;28;20099;-80
2024/02/18 01:46:10;;;;;;;19.42;10.00;;;;;;;0.84;100.00;101262.97;5028953;28;20040;-79
2024/02/18 01:48:36;;;;;;;21.23;11.82;;;;;;;0.62;100.00;101270.00;5029760;28;20851;-79
2024/02/18 01:51:02;;;;;;;22.50;11.65;;;;;;;0.80;100.00;101279.00;5029084;28;20043;-80
2024/02/18 01:53:28;;;;;;;23.08;11.52;;;;;;;0.54;100.00;101293.41;5029401;28;20053;-79
2024/02/18 01:55:55;;;;;;;21.58;11.30;;;;;;;0.15;100.00;101272.00;5028780;28;20483;-80
2024/02/18 01:58:20;;;;;;;20.92;11.15;;;;;;;0.05;100.00;101260.56;5028880;28;20029;-79
2024/02/18 02:00:48;;;;;;;22.45;11.40;;;;;;;0.19;100.00;101247.19;5028458;28;20041;-80
2024/02/18 02:03:14;;;;;;;21.10;10.93;;;;;;;0.56;100.00;101268.69;5028649;28;20414;-79
2024/02/18 02:05:41;;;;;;;19.23;10.40;;;;;;;0.19;100.00;101270.81;5028464;28;20021;-79
2024/02/18 02:08:07;;;;;;;21.85;10.23;;;;;;;0.15;100.00;101262.34;5029189;28;20033;-79
2024/02/18 02:10:32;;;;;;;18.55;9.82;;;;;;;-0.24;100.00;101234.84;5028085;28;20745;-79
2024/02/18 02:12:58;;;;;;;20.13;10.50;;;;;;;0.63;100.00;101292.66;5028387;28;20172;-80
2024/02/18 02:15:24;;;;;;;28.77;10.98;;;;;;;0.90;100.00;101288.72;5026783;28;20057;-79
2024/02/18 02:17:49;;;;;;;50.90;16.33;;;;;;;0.84;100.00;101269.09;5027148;28;20029;-79
2024/02/18 02:20:15;;;;;;;29.65;12.68;;;;;;;0.89;100.00;101266.06;5030125;28;20113;-79
2024/02/18 02:22:40;;;;;;;32.28;13.35;;;;;;;1.07;99.37;101264.53;5028434;28;20029;-79
2024/02/18 02:25:09;;;;;;;26.48;11.85;;;;;;;1.00;100.00;101260.75;5028483;28;20025;-79
2024/02/18 02:27:41;;;;;;;49.97;20.33;;;;;;;1.17;100.00;101275.97;5026909;28;20406;-78
2024/02/18 02:30:07;;;;;;;48.58;19.73;;;;;;;0.92;100.00;101248.28;5028084;28;20043;-79
2024/02/18 02:32:35;;;;;;;39.53;16.65;;;;;;;1.16;99.78;101258.50;5028072;28;20036;-78
2024/02/18 02:35:03;;;;;;;33.95;16.48;;;;;;;1.05;99.21;101255.97;5028230;28;20064;-78
2024/02/18 02:37:29;;;;;;;35.30;17.02;;;;;;;1.04;98.97;101270.03;5027699;28;20121;-78
2024/02/18 02:39:54;;;;;;;54.30;19.08;;;;;;;0.78;100.00;101259.91;5034050;28;20029;-78
2024/02/18 02:42:20;;;;;;;50.83;19.00;;;;;;;1.02;98.94;101255.38;5047674;28;20025;-79
2024/02/18 02:44:46;;;;;;;43.17;18.52;;;;;;;1.05;100.00;101261.22;5047650;28;20118;-78
2024/02/18 02:47:11;;;;;;;46.78;17.85;;;;;;;0.81;100.00;101227.31;5035238;28;20046;-79
2024/02/18 02:49:36;;;;;;;39.17;15.48;;;;;;;1.24;97.45;101254.41;5029632;28;20479;-78
2024/02/18 02:52:02;;;;;;;38.08;16.23;;;;;;;1.40;96.10;101260.88;5028022;28;20033;-79
2024/02/18 02:54:27;;;;;;;39.80;17.83;;;;;;;1.38;96.08;101280.38;5027394;28;20044;-78
2024/02/18 02:56:53;;;;;;;40.70;16.92;;;;;;;0.57;100.00;101241.50;5027834;28;20026;-79
2024/02/18 02:59:20;;;;;;;34.35;17.30;;;;;;;0.31;100.00;101264.59;5027377;28;20044;-79
2024/02/18 03:01:45;;;;;;;33.17;15.10;;;;;;;0.26;100.00;101285.09;5027488;28;20517;-79
2024/02/18 03:04:12;;;;;;;32.60;17.10;;;;;;;0.19;100.00;101265.56;5027193;28;20107;-79
2024/02/18 03:06:38;;;;;;;55.15;24.00;;;;;;;0.56;100.00;101257.38;5026488;28;20022;-79
2024/02/18 03:09:03;;;;;;;55.20;25.00;;;;;;;0.98;100.00;101275.81;5026321;28;20110;-77
2024/02/18 03:11:28;;;;;;;74.50;29.65;;;;;;;0.58;100.00;101247.56;5027445;28;20026;-79
2024/02/18 03:13:54;;;;;;;59.75;27.70;;;;;;;0.58;100.00;101251.03;5025948;28;20029;-79
2024/02/18 03:16:19;;;;;;;67.75;29.20;;;;;;;0.65;100.00;101263.66;5027081;28;20056;-79
2024/02/18 03:18:45;;;;;;;60.92;26.42;;;;;;;0.12;100.00;101249.50;5027615;28;20022;-79
2024/02/18 03:21:10;;;;;;;63.17;26.73;;;;;;;0.05;100.00;101242.22;5029197;28;20124;-78
2024/02/18 03:23:36;;;;;;;61.28;27.52;;;;;;;-0.26;100.00;101237.59;5027271;28;20018;-79
2024/02/18 03:26:01;;;;;;;54.05;24.33;;;;;;;-0.36;100.00;101260.22;5027501;28;20041;-79
2024/02/18 03:28:27;;;;;;;60.20;23.83;;;;;;;-0.46;100.00;101267.13;5025528;28;20029;-79
2024/02/18 03:30:53;;;;;;;58.33;22.83;;;;;;;-0.48;100.00;101284.75;5027521;28;20033;-79
2024/02/18 03:33:18;;;;;;;62.00;22.83;;;;;;;-0.75;100.00;101271.97;5026057;28;20033;-78
2024/02/18 03:35:45;;;;;;;66.28;23.00;;;;;;;-0.81;100.00;101284.56;5027279;28;20501;-79
2024/02/18 03:38:10;;;;;;;68.75;25.50;;;;;;;-0.69;100.00;101287.22;5026893;28;20026;-79
2024/02/18 03:40:36;;;;;;;63.67;23.98;;;;;;;-0.97;100.00;101270.94;5027073;28;20400;-79
2024/02/18 03:43:02;;;;;;;65.63;23.02;;;;;;;-1.22;100.00;101251.81;5025620;28;20026;-79
2024/02/18 03:45:28;;;;;;;51.03;18.35;;;;;;;-1.20;100.00;101287.53;5027120;28;20139;-79
2024/02/18 03:47:53;;;;;;;51.85;21.55;;;;;;;-1.04;100.00;101290.69;5026730;28;20502;-79
2024/02/18 03:50:19;;;;;;;52.15;19.58;;;;;;;-1.64;100.00;101258.41;5029302;28;20045;-79
2024/02/18 03:52:44;;;;;;;43.50;18.83;;;;;;;-1.71;100.00;101273.69;5029821;28;20032;-78
2024/02/18 03:55:14;;;;;;;38.40;16.60;;;;;;;-1.78;100.00;101292.53;5029660;28;20036;-79
2024/02/18 03:57:40;;;;;;;57.85;26.92;;;;;;;-1.43;100.00;101250.75;5030996;28;20032;-80
2024/02/18 04:00:07;;;;;;;39.10;18.90;;;;;;;-0.75;100.00;101300.78;5029817;28;20029;-80
2024/02/18 04:02:38;;;;;;;34.75;15.65;;;;;;;-1.05;100.00;101307.34;5030929;28;20030;-79
2024/02/18 04:05:05;;;;;;;40.38;13.73;;;;;;;-0.59;100.00;101303.91;5029438;28;20033;-80
2024/02/18 04:07:30;;;;;;;32.15;13.63;;;;;;;-1.36;100.00;101286.03;5031046;28;20033;-79
2024/02/18 04:09:56;;;;;;;39.65;14.00;;;;;;;-1.65;100.00;101277.66;5030655;28;20387;-79
2024/02/18 04:12:22;;;;;;;39.78;13.10;;;;;;;-1.16;100.00;101287.19;5030952;28;20037;-79
2024/02/18 04:14:48;;;;;;;33.13;14.40;;;;;;;-1.18;100.00;101264.69;5030523;28;20048;-79
2024/02/18 04:17:14;;;;;;;38.58;14.48;;;;;;;-0.92;100.00;101287.16;5030405;28;20026;-79
2024/02/18 04:19:39;;;;;;;30.05;13.52;;;;;;;-0.82;100.00;101309.09;5030762;28;20129;-78
2024/02/18 04:22:05;;;;;;;36.72;13.27;;;;;;;-1.05;100.00;101286.38;5029843;28;20049;-79
2024/02/18 04:24:30;;;;;;;46.00;13.65;;;;;;;-0.88;100.00;101306.94;5030815;28;20505;-79
2024/02/18 04:26:55;;;;;;;40.30;15.85;;;;;;;-1.10;100.00;101304.25;5029155;28;20032;-79
2024/02/18 04:29:21;;;;;;;35.25;15.15;;;;;;;-1.33;100.00;101272.69;5030323;28;20025;-79
2024/02/18 04:31:46;;;;;;;36.47;14.75;;;;;;;-2.05;100.00;101265.63;5030391;28;20463;-79
2024/02/18 04:34:11;;;;;;;32.05;13.18;;;;;;;-2.13;100.00;101293.22;5030060;28;20029;-80
2024/02/18 04:36:37;;;;;;;37.08;14.98;;;;;;;-1.81;100.00;101259.59;5030312;28;20411;-80
2024/02/18 04:39:02;;;;;;;38.83;16.13;;;;;;;-1.33;100.00;101282.34;5029904;28;20029;-81
2024/02/18 04:41:28;;;;;;;46.33;18.25;;;;;;;-1.76;100.00;101264.50;5028783;28;20075;-79
2024/02/18 04:43:53;;;;;;;50.25;18.92;;;;;;;-1.70;100.00;101269.28;5028865;28;20034;-79
2024/02/18 04:46:18;;;;;;;54.97;21.77;;;;;;;-1.46;100.00;101305.94;5029891;28;20132;-80
2024/02/18 04:48:44;;;;;;;60.20;22.42;;;;;;;-1.60;100.00;101251.16;5030523;28;20037;-79
2024/02/18 04:51:09;;;;;;;49.15;21.27;;;;;;;-1.47;100.00;101265.88;5028740;28;20117;-80
2024/02/18 04:53:35;;;;;;;60.30;20.35;;;;;;;-1.60;100.00;101279.94;5061973;28;20029;-79
2024/02/18 04:56:00;;;;;;;45.08;18.52;;;;;;;-1.85;100.00;101260.78;5029961;28;20409;-79
2024/02/18 04:58:25;;;;;;;39.65;15.40;;;;;;;-1.80;100.00;101297.88;5029814;28;20037;-79
2024/02/18 05:00:51;;;;;;;34.00;15.10;;;;;;;-2.01;100.00;101284.53;5028148;28;20108;-79
2024/02/18 05:03:16;;;;;;;44.88;18.05;;;;;;;-1.83;100.00;101282.41;5027674;28;20479;-79
2024/02/18 05:05:42;;;;;;;40.30;17.65;;;;;;;-1.13;100.00;101304.44;5028368;28;20403;-79
2024/02/18 05:08:07;;;;;;;56.70;19.58;;;;;;;-1.54;100.00;101295.19;5029733;28;20037;-79
2024/02/18 05:10:32;;;;;;;47.88;17.67;;;;;;;-1.52;100.00;101301.97;5029706;28;20030;-80
2024/02/18 05:12:58;;;;;;;45.22;17.23;;;;;;;-1.62;100.00;101288.72;5031706;28;20029;-79
2024/02/18 05:15:24;;;;;;;45.33;14.77;;;;;;;-1.01;100.00;101312.22;5029785;28;20136;-79
2024/02/18 05:17:49;;;;;;;33.83;14.48;;;;;;;-1.62;100.00;101267.78;5029691;28;20112;-80
2024/02/18 05:20:15;;;;;;;40.55;16.10;;;;;;;-1.45;100.00;101298.00;5029981;28;20721;-79
2024/02/18 05:22:40;;;;;;;48.10;21.80;;;;;;;-1.65;100.00;101309.06;5029182;28;20061;-79
2024/02/18 05:25:06;;;;;;;58.15;20.55;;;;;;;-1.23;100.00;101320.84;5029578;28;20084;-79
2024/02/18 05:27:32;;;;;;;92.20;40.17;;;;;;;-1.39;100.00;101299.31;5030045;28;20029;-79
2024/02/18 05:29:58;;;;;;;671.50;247.18;;;;;;;-1.32;100.00;101279.63;5029790;28;20038;-79
2024/02/18 05:32:25;;;;;;;198.57;69.18;;;;;;;-1.57;100.00;101282.31;5027822;28;20041;-79
2024/02/18 05:34:50;;;;;;;57.00;28.05;;;;;;;-1.14;100.00;101303.63;5035378;28;20098;-79
2024/02/18 05:37:16;;;;;;;63.72;36.30;;;;;;;-0.48;100.00;101290.81;5048354;28;20034;-80
2024/02/18 05:39:41;;;;;;;79.20;47.17;;;;;;;-0.61;100.00;101274.38;5048324;28;20080;-79
2024/02/18 05:42:07;;;;;;;45.33;20.88;;;;;;;-0.80;100.00;101285.38;5046711;28;20029;-79
2024/02/18 05:44:32;;;;;;;51.00;24.10;;;;;;;-0.62;100.00;101304.13;5040941;28;20033;-79
2024/02/18 05:46:58;;;;;;;56.28;24.13;;;;;;;-1.02;100.00;101309.75;5039776;28;20470;-80
2024/02/18 05:49:24;;;;;;;49.83;23.98;;;;;;;-1.09;100.00;101284.94;5050374;28;20037;-80
2024/02/18 05:51:53;;;;;;;46.45;21.60;;;;;;;-0.47;100.00;101313.47;5054942;28;20037;-80
2024/02/18 05:54:20;;;;;;;43.90;20.38;;;;;;;-0.83;100.00;101291.69;5038592;28;20029;-80
2024/02/18 05:56:46;;;;;;;39.05;17.63;;;;;;;-1.19;100.00;101300.50;5039176;28;20026;-79
2024/02/18 05:59:12;;;;;;;40.17;18.63;;;;;;;-0.77;100.00;101305.31;5035018;28;20095;-79
2024/02/18 06:01:37;;;;;;;61.75;19.95;;;;;;;-0.84;100.00;101304.91;5036076;28;20025;-80
2024/02/18 06:04:03;;;;;;;47.15;20.65;;;;;;;-0.19;100.00;101334.94;5034552;28;20465;-79
2024/02/18 06:06:29;;;;;;;53.33;20.98;;;;;;;-0.15;100.00;101322.44;5035292;28;20089;-80
2024/02/18 06:08:57;;;;;;;40.50;17.23;;;;;;;0.11;100.00;101344.03;5037221;28;20044;-78
2024/02/18 06:11:22;;;;;;;30.80;15.95;;;;;;;0.15;100.00;101334.97;5035068;28;20025;-79
2024/02/18 06:13:48;;;;;;;27.85;13.57;;;;;;;-0.04;100.00;101344.25;5051095;28;20040;-79
2024/02/18 06:16:13;;;;;;;28.73;13.85;;;;;;;0.17;100.00;101338.31;5051109;28;20102;-79
2024/02/18 06:18:39;;;;;;;33.70;14.88;;;;;;;-0.06;100.00;101346.16;5047807;28;20759;-79
2024/02/18 06:21:04;;;;;;;47.78;27.30;;;;;;;0.07;100.00;101347.84;5028487;28;20037;-79
2024/02/18 06:23:30;;;;;;;40.00;16.65;;;;;;;-0.25;100.00;101333.63;5028839;28;20112;-79
2024/02/18 06:25:56;;;;;;;45.33;18.67;;;;;;;0.18;100.00;101348.69;5028927;28;20048;-80
2024/02/18 06:28:21;;;;;;;43.00;19.23;;;;;;;0.48;100.00;101362.97;5031099;28;20112;-80
2024/02/18 06:30:47;;;;;;;37.17;17.17;;;;;;;0.21;100.00;101339.72;5034973;28;20037;-80
2024/02/18 06:33:13;;;;;;;38.30;16.30;;;;;;;0.62;100.00;101375.00;5039481;28;20132;-79
2024/02/18 06:35:38;;;;;;;50.95;17.88;;;;;;;0.76;100.00;101331.91;5030206;28;20041;-80
2024/02/18 06:38:03;;;;;;;47.22;17.13;;;;;;;0.95;100.00;101355.69;5026777;28;20033;-80
2024/02/18 06:40:29;;;;;;;36.67;17.40;;;;;;;1.15;100.00;101356.69;5028138;28;20569;-80
2024/02/18 06:42:54;;;;;;;38.97;15.43;;;;;;;1.05;100.00;101334.78;5028797;28;20105;-81
2024/02/18 06:45:19;;;;;;;36.75;16.60;;;;;;;0.90;100.00;101362.28;5026480;28;20032;-80
2024/02/18 06:47:45;;;;;;;43.38;18.25;;;;;;;0.98;100.00;101359.84;5026883;28;20044;-80
2024/02/18 06:50:11;;;;;;;44.00;17.20;;;;;;;0.90;100.00;101357.00;5027473;28;20087;-81
2024/02/18 06:52:37;;;;;;;53.42;18.90;;;;;;;0.86;100.00;101342.47;5028563;28;20033;-80
2024/02/18 06:55:06;;;;;;;56.28;17.20;;;;;;;1.02;100.00;101345.50;5027444;28;20040;-80
2024/02/18 06:57:32;;;;;;;48.60;18.80;;;;;;;0.66;100.00;101342.28;5027745;28;20112;-80
2024/02/18 06:59:57;;;;;;;56.10;19.65;;;;;;;1.10;100.00;101361.47;5027592;28;20120;-79
2024/02/18 07:02:23;;;;;;;53.08;20.50;;;;;;;1.03;100.00;101360.34;5059630;28;20041;-80
2024/02/18 07:04:49;;;;;;;42.97;16.98;;;;;;;0.69;100.00;101307.91;5027857;28;20502;-81
2024/02/18 07:07:15;;;;;;;54.95;15.75;;;;;;;0.90;100.00;101341.25;5027133;28;20021;-81
2024/02/18 07:09:42;;;;;;;43.00;17.15;;;;;;;1.23;100.00;101358.72;5027743;28;20040;-81
2024/02/18 07:12:08;;;;;;;56.03;17.40;;;;;;;1.59;100.00;101370.59;5025877;28;20589;-80
2024/02/18 07:14:33;;;;;;;36.78;16.50;;;;;;;1.35;100.00;101368.22;5027944;28;20056;-80
2024/02/18 07:16:59;;;;;;;78.38;26.42;;;;;;;1.16;100.00;101308.44;5027738;28;20103;-81
2024/02/18 07:19:24;;;;;;;65.93;24.58;;;;;;;1.56;100.00;101360.31;5028609;28;20053;-81
2024/02/18 07:21:49;;;;;;;69.15;18.17;;;;;;;1.87;100.00;101360.38;5047513;28;20044;-80
2024/02/18 07:24:15;;;;;;;36.58;15.65;;;;;;;1.47;100.00;101329.56;5031934;28;20104;-80
2024/02/18 07:26:40;;;;;;;64.32;22.25;;;;;;;2.22;100.00;101356.50;5027005;28;20478;-80
2024/02/18 07:29:06;;;;;;;48.55;15.50;;;;;;;1.78;100.00;101348.00;5027445;28;20041;-81
2024/02/18 07:31:31;;;;;;;58.83;16.27;;;;;;;1.95;100.00;101355.28;5025981;28;20042;-80
2024/02/18 07:33:58;;;;;;;110.43;19.08;;;;;;;1.99;100.00;101363.75;5026990;28;20185;-80
2024/02/18 07:36:23;;;;;;;54.13;18.73;;;;;;;1.99;100.00;101325.13;5030238;28;20032;-80
2024/02/18 07:38:48;;;;;;;59.90;21.80;;;;;;;2.21;100.00;101344.34;5042674;28;20116;-80
2024/02/18 07:41:14;;;;;;;52.42;18.98;;;;;;;2.64;100.00;101345.84;5031493;28;20022;-81
2024/02/18 07:43:41;;;;;;;46.33;21.75;;;;;;;2.91;100.00;101366.25;5025475;28;20156;-80
2024/02/18 07:46:07;;;;;;;45.78;18.48;;;;;;;2.61;100.00;101335.56;5026926;28;20091;-81
2024/02/18 07:48:32;;;;;;;39.72;18.95;;;;;;;2.64;100.00;101340.56;5026644;28;20037;-80
2024/02/18 07:50:58;;;;;;;61.05;19.95;;;;;;;2.65;100.00;101323.78;5026866;28;21300;-80
2024/02/18 07:53:23;;;;;;;48.60;21.63;;;;;;;2.93;100.00;101356.41;5025451;28;20045;-80
2024/02/18 07:55:49;;;;;;;46.50;18.30;;;;;;;3.26;100.00;101340.34;5025513;28;20033;-80
2024/02/18 07:58:14;;;;;;;41.65;20.75;;;;;;;3.09;100.00;101329.53;5028324;28;20021;-80
2024/02/18 08:00:41;;;;;;;52.65;19.92;;;;;;;3.89;100.00;101330.09;5035847;28;20033;-80
2024/02/18 08:03:07;;;;;;;42.78;20.33;;;;;;;4.34;100.00;101352.28;5044120;28;20021;-80
2024/02/18 08:05:32;;;;;;;47.47;21.85;;;;;;;4.65;100.00;101346.69;5026852;28;20029;-80
2024/02/18 08:07:59;;;;;;;48.60;21.90;;;;;;;4.28;100.00;101343.13;5027015;28;20030;-80
2024/02/18 08:10:24;;;;;;;41.42;20.13;;;;;;;4.78;100.00;101350.66;5025727;28;20033;-80
2024/02/18 08:12:49;;;;;;;39.25;19.65;;;;;;;4.54;100.00;101332.72;5026796;28;20033;-80
2024/02/18 08:15:15;;;;;;;40.75;20.42;;;;;;;5.20;100.00;101339.47;5027341;28;20053;-79
2024/02/18 08:17:41;;;;;;;36.30;20.05;;;;;;;5.54;100.00;101314.09;5026542;28;20548;-80
2024/02/18 08:20:06;;;;;;;38.90;20.83;;;;;;;5.70;100.00;101329.22;5027259;28;20041;-80
2024/02/18 08:22:32;;;;;;;37.95;18.83;;;;;;;5.70;100.00;101350.41;5026611;28;20022;-80
2024/02/18 08:24:57;;;;;;;49.92;25.48;;;;;;;6.04;100.00;101335.41;5026595;28;20124;-79
2024/02/18 08:27:22;;;;;;;34.67;17.92;;;;;;;5.58;100.00;101307.50;5026581;28;20025;-79
2024/02/18 08:29:48;;;;;;;32.10;18.38;;;;;;;5.55;100.00;101310.47;5026914;28;20033;-79
2024/02/18 08:32:14;;;;;;;37.63;18.95;;;;;;;6.11;100.00;101324.19;5026925;28;20029;-80
2024/02/18 08:34:41;;;;;;;38.13;20.30;;;;;;;7.11;100.00;101338.41;5025290;28;20038;-80
2024/02/18 08:37:06;;;;;;;37.35;19.30;;;;;;;6.67;100.00;101336.00;5026925;28;20017;-80
2024/02/18 08:39:32;;;;;;;32.60;18.08;;;;;;;6.74;96.66;101313.16;5028962;28;20095;-79
2024/02/18 08:41:57;;;;;;;29.95;15.80;;;;;;;6.65;97.49;101340.63;5029877;28;20088;-79
2024/02/18 08:44:22;;;;;;;32.28;17.85;;;;;;;6.71;97.01;101332.03;5029080;28;20026;-80
2024/02/18 08:46:49;;;;;;;41.25;24.02;;;;;;;7.12;93.92;101299.44;5030131;28;20041;-79
2024/02/18 08:49:17;;;;;;;40.08;22.65;;;;;;;7.65;90.00;101312.13;5029973;28;20037;-80
2024/02/18 08:51:43;;;;;;;54.17;32.88;;;;;;;7.85;89.44;101333.03;5029991;28;20038;-80
2024/02/18 08:54:09;;;;;;;85.80;46.42;;;;;;;7.43;91.54;101342.84;5030973;28;20028;-80
2024/02/18 08:56:34;;;;;;;207.50;112.03;;;;;;;8.09;93.36;101334.78;5029807;28;20479;-79
2024/02/18 08:59:00;;;;;;;131.15;74.18;;;;;;;8.14;84.98;101343.06;5038573;28;20521;-80
2024/02/18 09:01:25;;;;;;;83.15;46.53;;;;;;;8.75;85.28;101351.28;5038883;28;20032;-80
2024/02/18 09:03:52;;;;;;;196.63;112.72;;;;;;;8.72;80.07;101335.66;5034908;28;20048;-78
2024/02/18 09:06:17;;;;;;;63.10;37.00;;;;;;;9.20;87.30;101325.69;5029697;28;20070;-79
2024/02/18 09:08:43;;;;;;;98.65;60.28;;;;;;;8.97;79.47;101338.16;5029892;28;20112;-80
2024/02/18 09:11:08;;;;;;;43.58;22.77;;;;;;;9.68;79.97;101336.09;5029678;28;20052;-79
2024/02/18 09:13:34;;;;;;;33.95;20.48;;;;;;;9.10;76.85;101322.44;5029361;28;20026;-79
2024/02/18 09:15:59;;;;;;;32.85;19.02;;;;;;;8.82;79.49;101336.28;5029731;28;20132;-79
2024/02/18 09:18:25;;;;;;;33.75;19.85;;;;;;;8.95;79.46;101346.34;5040422;28;20029;-79
2024/02/18 09:20:50;;;;;;;40.92;21.90;;;;;;;9.07;80.26;101314.81;5037726;28;20028;-80
2024/02/18 09:23:16;;;;;;;41.15;24.52;;;;;;;9.37;77.98;101320.25;5039418;28;20044;-79
2024/02/18 09:25:42;;;;;;;38.78;24.73;;;;;;;10.37;80.34;101329.69;5038804;28;20037;-79
2024/02/18 09:28:08;;;;;;;34.92;20.73;;;;;;;9.60;72.72;101286.41;5039572;28;20408;-79
2024/02/18 09:30:35;;;;;;;37.80;24.38;;;;;;;9.19;74.01;101316.06;5038543;28;20021;-78
2024/02/18 09:33:00;;;;;;;40.50;30.02;;;;;;;10.17;72.21;101327.53;5037852;28;20139;-79
2024/02/18 09:35:27;;;;;;;30.02;18.00;;;;;;;10.14;69.24;101319.94;5037247;28;20083;-79
2024/02/18 09:37:52;;;;;;;26.13;16.27;;;;;;;10.65;67.25;101337.81;5033971;28;20402;-79
2024/02/18 09:40:18;;;;;;;31.08;17.05;;;;;;;11.03;66.70;101340.25;5044386;28;20021;-79
2024/02/18 09:42:45;;;;;;;25.80;16.23;;;;;;;11.05;65.49;101322.19;5033673;28;20433;-78
2024/02/18 09:45:11;;;;;;;25.75;16.50;;;;;;;11.00;66.49;101324.63;5029108;28;20033;-79
2024/02/18 09:47:40;;;;;;;28.77;16.00;;;;;;;11.35;62.25;101320.22;5027651;28;20036;-79
2024/02/18 09:50:09;;;;;;;31.20;20.05;;;;;;;11.22;62.98;101310.25;5028631;28;20544;-79
2024/02/18 09:52:38;;;;;;;27.90;16.33;;;;;;;11.83;60.70;101308.84;5029006;28;20029;-79
2024/02/18 09:55:06;;;;;;;27.20;16.67;;;;;;;12.21;59.54;101316.47;5028823;28;20029;-79
2024/02/18 09:57:31;;;;;;;28.95;18.65;;;;;;;14.35;58.05;101309.31;5028784;28;20056;-79
2024/02/18 09:59:56;;;;;;;27.00;17.55;;;;;;;13.81;65.73;101276.47;5028823;28;20065;-79
2024/02/18 10:02:22;;;;;;;39.58;24.08;;;;;;;14.05;55.99;101302.59;5030410;28;20140;-80
2024/02/18 10:04:48;;;;;;;24.35;15.82;;;;;;;14.15;52.22;101278.00;5042823;28;20112;-80
2024/02/18 10:07:15;;;;;;;29.70;18.63;;;;;;;13.79;55.36;101286.56;5028716;28;20026;-79
2024/02/18 10:09:40;;;;;;;24.13;15.95;;;;;;;14.11;52.59;101305.47;5035056;28;20120;-80
2024/02/18 10:12:07;;;;;;;28.48;20.55;;;;;;;13.92;52.51;101283.88;5036103;28;20048;-80
2024/02/18 10:14:35;;;;;;;31.00;21.52;;;;;;;14.16;54.22;101285.03;5037753;28;20033;-80
2024/02/18 10:17:00;;;;;;;27.50;19.83;;;;;;;14.84;50.41;101281.78;5032338;28;20639;-79
2024/02/18 10:19:26;;;;;;;36.55;27.10;;;;;;;14.20;49.46;101280.03;5037139;28;20029;-80
2024/02/18 10:21:51;;;;;;;33.90;20.42;;;;;;;13.90;51.41;101261.81;5036508;28;20021;-79
2024/02/18 10:24:23;;;;;;;31.75;18.80;;;;;;;14.41;49.18;101276.25;5037406;28;20025;-79
2024/02/18 10:26:50;;;;;;;39.50;25.13;;;;;;;14.52;54.95;101242.53;5039657;28;20021;-79
2024/02/18 10:29:15;;;;;;;26.08;16.73;;;;;;;14.36;48.09;101273.38;5036684;28;20499;-78
2024/02/18 10:31:41;;;;;;;43.47;24.92;;;;;;;13.80;53.96;101272.97;5037910;28;20126;-79
2024/02/18 10:34:06;;;;;;;30.45;18.95;;;;;;;13.65;51.57;101250.97;5036482;28;20034;-79
2024/02/18 10:36:33;;;;;;;29.13;17.90;;;;;;;12.81;53.54;101253.25;5036974;28;20021;-78
2024/02/18 10:39:03;;;;;;;45.13;27.05;;;;;;;12.86;54.83;101261.47;5035746;28;20026;-78
2024/02/18 10:41:35;;;;;;;47.15;29.13;;;;;;;12.92;54.75;101222.34;5036531;28;20037;-79
2024/02/18 10:44:05;;;;;;;43.17;29.00;;;;;;;12.85;55.29;101227.72;5036423;28;20494;-78
2024/02/18 10:46:32;;;;;;;32.58;22.30;;;;;;;13.18;54.64;101226.06;5034014;28;20040;-77
2024/02/18 10:49:26;;;;;;;37.30;24.50;;;;;;;13.29;57.80;101219.25;5036072;28;20087;-78
2024/02/18 10:52:11;;;;;;;31.02;20.48;;;;;;;13.34;56.17;101224.81;5033831;28;20037;-78
2024/02/18 10:55:02;;;;;;;48.75;32.05;;;;;;;13.59;58.98;101201.69;5037553;28;20037;-79
2024/02/18 10:57:31;;;;;;;61.63;45.38;;;;;;;13.83;57.79;101212.72;5037466;28;20026;-78
2024/02/18 11:00:04;;;;;;;40.88;26.38;;;;;;;13.99;55.93;101212.25;5035415;28;20033;-79
2024/02/18 11:03:11;;;;;;;35.38;22.88;;;;;;;13.93;57.52;101210.41;5034905;28;20487;-78